createdAt,value
2023-03-05T00:01:40.604Z,64.70
2023-03-05T00:04:13.060Z,64.69
2023-03-05T00:06:41.689Z,64.70
2023-03-05T00:09:11.463Z,64.81
2023-03-05T00:11:45.327Z,64.90
2023-03-05T00:14:14.119Z,64.90
2023-03-05T00:16:42.463Z,64.87
2023-03-05T00:19:11.747Z,65.03
2023-03-05T00:21:41.790Z,64.88
2023-03-05T00:24:14.409Z,65.06
2023-03-05T00:26:42.741Z,65.39
2023-03-05T00:29:12.401Z,65.27
2023-03-05T00:31:40.959Z,65.52
2023-03-05T00:34:12.317Z,65.52
2023-03-05T00:36:42.307Z,65.63
2023-03-05T00:39:12.750Z,65.56
2023-03-05T00:41:41.104Z,65.74
2023-03-05T00:44:09.469Z,65.71
2023-03-05T00:46:38.291Z,65.62
2023-03-05T00:49:07.143Z,65.79
2023-03-05T00:51:35.792Z,65.74
2023-03-05T00:54:04.633Z,65.75
2023-03-05T00:56:34.707Z,66.16
2023-03-05T00:59:03.539Z,66.02
2023-03-05T01:01:41.887Z,65.74
2023-03-05T01:04:10.640Z,65.88
2023-03-05T01:06:42.748Z,66.23
2023-03-05T01:09:11.323Z,66.06
2023-03-05T01:11:41.422Z,65.88
2023-03-05T01:14:09.764Z,66.00
2023-03-05T01:16:38.172Z,65.91
2023-03-05T01:19:06.521Z,65.72
2023-03-05T01:21:35.861Z,66.04
2023-03-05T01:24:04.869Z,66.03
2023-03-05T01:26:33.345Z,66.02
2023-03-05T01:29:03.266Z,66.21
2023-03-05T01:31:31.979Z,65.81
2023-03-05T01:34:00.959Z,66.10
2023-03-05T01:36:29.287Z,66.28
2023-03-05T01:38:57.790Z,66.16
2023-03-05T01:41:26.835Z,66.01
2023-03-05T01:43:55.372Z,66.25
2023-03-05T01:46:34.905Z,65.66
2023-03-05T01:49:09.199Z,65.69
2023-03-05T01:51:43.002Z,65.89
2023-03-05T01:54:14.559Z,66.01
2023-03-05T01:56:44.826Z,65.96
2023-03-05T01:59:15.045Z,65.79
2023-03-05T02:01:47.203Z,66.10
2023-03-05T02:04:18.428Z,66.19
2023-03-05T02:06:48.055Z,66.04
2023-03-05T02:09:16.511Z,65.90
2023-03-05T02:11:45.196Z,65.67
2023-03-05T02:14:13.918Z,65.73
2023-03-05T02:16:43.846Z,66.00
2023-03-05T02:19:13.656Z,65.87
2023-03-05T02:21:45.331Z,65.75
2023-03-05T02:24:15.317Z,66.04
2023-03-05T02:26:44.884Z,65.95
2023-03-05T02:29:19.771Z,65.84
2023-03-05T02:31:48.148Z,65.89
2023-03-05T02:34:16.458Z,65.94
2023-03-05T02:36:46.771Z,65.85
2023-03-05T02:39:15.087Z,66.08
2023-03-05T02:41:43.514Z,66.06
2023-03-05T02:44:12.022Z,65.83
2023-03-05T02:46:40.422Z,66.13
2023-03-05T02:49:08.758Z,65.85
2023-03-05T02:51:37.186Z,66.00
2023-03-05T02:54:07.010Z,65.88
2023-03-05T02:56:35.502Z,66.01
2023-03-05T02:59:03.894Z,66.23
2023-03-05T03:01:32.268Z,66.28
2023-03-05T03:04:00.725Z,65.80
2023-03-05T03:06:29.174Z,66.15
2023-03-05T03:08:57.477Z,66.05
2023-03-05T03:11:27.196Z,66.29
2023-03-05T03:13:55.544Z,66.08
2023-03-05T03:16:35.271Z,65.81
2023-03-05T03:19:07.444Z,65.98
2023-03-05T03:21:35.770Z,65.91
2023-03-05T03:24:04.258Z,66.18
2023-03-05T03:26:33.996Z,66.21
2023-03-05T03:29:02.340Z,66.32
2023-03-05T03:31:30.677Z,66.19
2023-03-05T03:33:59.322Z,66.22
2023-03-05T03:36:27.681Z,66.28
2023-03-05T03:38:55.938Z,66.55
2023-03-05T03:41:24.442Z,66.70
2023-03-05T03:43:54.150Z,66.31
2023-03-05T03:46:22.509Z,66.44
2023-03-05T03:48:51.705Z,66.55
2023-03-05T03:51:20.053Z,66.79
2023-03-05T03:53:48.398Z,66.75
2023-03-05T03:56:16.762Z,67.07
2023-03-05T03:58:45.220Z,66.85
2023-03-05T04:01:14.897Z,67.23
2023-03-05T04:03:43.317Z,66.83
2023-03-05T04:06:11.702Z,66.52
2023-03-05T04:08:40.227Z,67.12
2023-03-05T04:11:08.565Z,66.94
2023-03-05T04:13:36.894Z,67.01
2023-03-05T04:16:05.732Z,66.73
2023-03-05T04:18:35.451Z,67.07
2023-03-05T04:21:03.778Z,66.72
2023-03-05T04:23:32.237Z,67.11
2023-03-05T04:26:00.903Z,67.08
2023-03-05T04:28:29.438Z,67.04
2023-03-05T04:30:57.813Z,67.12
2023-03-05T04:33:26.513Z,66.88
2023-03-05T04:35:56.281Z,67.17
2023-03-05T04:38:24.587Z,66.91
2023-03-05T04:40:53.095Z,66.95
2023-03-05T04:43:21.430Z,66.87
2023-03-05T04:45:49.829Z,67.11
2023-03-05T04:48:18.948Z,66.87
2023-03-05T04:50:47.502Z,67.39
2023-03-05T04:53:17.366Z,67.28
2023-03-05T04:55:45.961Z,67.32
2023-03-05T04:58:14.300Z,67.27
2023-03-05T05:00:42.911Z,67.25
2023-03-05T05:03:11.314Z,67.09
2023-03-05T05:05:39.851Z,67.67
2023-03-05T05:08:08.216Z,67.18
2023-03-05T05:10:39.604Z,67.39
2023-03-05T05:13:08.066Z,67.65
2023-03-05T05:15:36.389Z,67.92
2023-03-05T05:18:04.921Z,67.90
2023-03-05T05:20:33.249Z,68.04
2023-03-05T05:23:01.585Z,67.82
2023-03-05T05:25:29.993Z,67.80
2023-03-05T05:27:59.669Z,68.40
2023-03-05T05:30:27.996Z,68.35
2023-03-05T05:32:56.326Z,68.12
2023-03-05T05:35:24.892Z,68.21
2023-03-05T05:37:53.336Z,68.39
2023-03-05T05:40:21.833Z,68.54
2023-03-05T05:42:50.150Z,68.70
2023-03-05T05:45:20.206Z,68.61
2023-03-05T05:47:48.722Z,68.77
2023-03-05T05:50:17.331Z,68.62
2023-03-05T05:52:45.627Z,68.68
2023-03-05T05:55:14.436Z,68.66
2023-03-05T05:57:42.725Z,68.43
2023-03-05T06:00:14.965Z,68.34
2023-03-05T06:02:45.045Z,68.52
2023-03-05T06:05:15.970Z,68.56
2023-03-05T06:07:44.696Z,68.48
2023-03-05T06:10:13.661Z,68.61
2023-03-05T06:12:42.284Z,68.67
2023-03-05T06:15:11.220Z,68.75
2023-03-05T06:17:39.686Z,68.90
2023-03-05T06:20:10.818Z,68.94
2023-03-05T06:22:39.894Z,69.07
2023-03-05T06:25:10.185Z,68.84
2023-03-05T06:27:39.542Z,68.83
2023-03-05T06:30:09.291Z,68.88
2023-03-05T06:32:37.801Z,68.98
2023-03-05T06:35:07.002Z,68.92
2023-03-05T06:37:36.724Z,68.95
2023-03-05T06:40:07.744Z,69.18
2023-03-05T06:42:36.098Z,69.25
2023-03-05T06:45:05.198Z,69.20
2023-03-05T06:47:33.607Z,69.29
2023-03-05T06:50:01.974Z,69.24
2023-03-05T06:52:30.362Z,69.35
2023-03-05T06:55:00.385Z,69.25
2023-03-05T06:57:28.787Z,69.30
2023-03-05T06:59:57.203Z,69.34
2023-03-05T07:02:25.675Z,69.09
2023-03-05T07:04:54.078Z,69.15
2023-03-05T07:07:22.672Z,69.45
2023-03-05T07:09:53.195Z,69.31
2023-03-05T07:12:22.888Z,69.56
2023-03-05T07:14:51.408Z,69.33
2023-03-05T07:17:19.780Z,69.16
2023-03-05T07:19:48.115Z,69.11
2023-03-05T07:22:16.440Z,69.05
2023-03-05T07:24:44.855Z,69.11
2023-03-05T07:27:13.227Z,69.33
2023-03-05T07:29:42.877Z,69.39
2023-03-05T07:32:11.298Z,69.28
2023-03-05T07:34:39.702Z,69.01
2023-03-05T07:37:08.012Z,69.11
2023-03-05T07:39:36.453Z,69.14
2023-03-05T07:42:04.910Z,69.26
2023-03-05T07:44:33.287Z,69.19
2023-03-05T07:47:03.080Z,69.37
2023-03-05T07:49:31.483Z,69.19
2023-03-05T07:51:59.783Z,69.25
2023-03-05T07:54:28.230Z,69.34
2023-03-05T07:56:56.625Z,69.21
2023-03-05T07:59:24.958Z,69.24
2023-03-05T08:01:53.299Z,69.14
2023-03-05T08:04:23.152Z,69.23
2023-03-05T08:06:51.721Z,69.36
2023-03-05T08:09:20.942Z,69.07
2023-03-05T08:11:49.308Z,69.45
2023-03-05T08:14:17.973Z,69.49
2023-03-05T08:16:48.357Z,69.69
2023-03-05T08:19:16.879Z,69.59
2023-03-05T08:21:47.523Z,69.44
2023-03-05T08:24:16.109Z,69.45
2023-03-05T08:26:44.738Z,69.08
2023-03-05T08:29:13.120Z,69.12
2023-03-05T08:31:41.631Z,69.38
2023-03-05T08:34:10.006Z,69.21
2023-03-05T08:36:38.438Z,69.38
2023-03-05T08:39:08.569Z,68.98
2023-03-05T08:41:37.177Z,68.80
2023-03-05T08:44:05.915Z,69.14
2023-03-05T08:46:34.697Z,69.19
2023-03-05T08:49:03.373Z,68.78
2023-03-05T08:51:31.748Z,69.16
2023-03-05T08:54:01.710Z,68.67
2023-03-05T08:56:31.545Z,68.92
2023-03-05T08:59:00.079Z,69.08
2023-03-05T09:01:28.587Z,68.92
2023-03-05T09:03:56.952Z,69.20
2023-03-05T09:06:25.317Z,69.20
2023-03-05T09:08:54.009Z,69.14
2023-03-05T09:11:22.438Z,69.17
2023-03-05T09:13:52.426Z,68.56
2023-03-05T09:16:21.160Z,68.78
2023-03-05T09:18:49.477Z,69.05
2023-03-05T09:21:18.968Z,69.08
2023-03-05T09:23:48.115Z,68.33
2023-03-05T09:26:19.375Z,68.39
2023-03-05T09:28:47.985Z,68.13
2023-03-05T09:31:18.142Z,68.69
2023-03-05T09:33:48.226Z,68.64
2023-03-05T09:36:20.244Z,67.99
2023-03-05T09:38:48.707Z,68.08
2023-03-05T09:41:24.935Z,67.69
2023-03-05T09:44:00.473Z,67.70
2023-03-05T09:46:39.004Z,67.86
2023-03-05T09:49:18.784Z,67.92
2023-03-05T09:51:51.425Z,67.92
2023-03-05T09:54:22.672Z,68.23
2023-03-05T09:56:56.579Z,67.51
2023-03-05T09:59:31.551Z,67.51
2023-03-05T10:02:06.107Z,67.52
2023-03-05T10:04:44.374Z,67.29
2023-03-05T10:07:18.158Z,68.07
2023-03-05T10:09:50.158Z,68.07
2023-03-05T10:12:25.361Z,67.73
2023-03-05T10:14:53.891Z,67.79
2023-03-05T10:18:00.087Z,68.55
2023-03-05T10:20:53.499Z,68.13
2023-03-05T10:23:31.276Z,68.25
2023-03-05T10:26:07.807Z,68.43
2023-03-05T10:28:44.247Z,68.24
2023-03-05T10:31:36.195Z,67.90
2023-03-05T10:34:33.267Z,67.84
2023-03-05T10:37:21.349Z,67.75
2023-03-05T10:39:58.085Z,68.05
2023-03-05T10:42:33.765Z,67.83
2023-03-05T10:45:12.691Z,67.65
2023-03-05T10:47:47.035Z,67.13
2023-03-05T10:50:20.315Z,66.90
2023-03-05T10:52:53.532Z,66.74
2023-03-05T10:55:23.737Z,67.25
2023-03-05T10:57:52.098Z,66.99
2023-03-05T11:00:22.929Z,67.31
2023-03-05T11:02:57.764Z,66.87
2023-03-05T11:05:42.078Z,67.27
2023-03-05T11:08:25.223Z,67.03
2023-03-05T11:11:14.945Z,67.20
2023-03-05T11:13:55.007Z,66.72
2023-03-05T11:16:26.535Z,66.80
2023-03-05T11:19:19.957Z,66.52
2023-03-05T11:22:14.311Z,66.56
2023-03-05T11:24:43.421Z,66.26
2023-03-05T11:27:27.031Z,66.32
2023-03-05T11:29:55.543Z,66.18
2023-03-05T11:32:26.849Z,66.06
2023-03-05T11:34:56.782Z,65.79
2023-03-05T11:37:29.213Z,65.68
2023-03-05T11:40:17.477Z,65.43
2023-03-05T11:42:46.496Z,65.97
2023-03-05T11:45:19.919Z,65.53
2023-03-05T11:47:50.870Z,65.51
2023-03-05T11:50:23.416Z,64.97
2023-03-05T11:52:57.080Z,65.06
2023-03-05T11:55:29.723Z,64.84
2023-03-05T11:58:12.329Z,64.64
2023-03-05T12:00:45.131Z,64.15
2023-03-05T12:03:17.349Z,64.23
2023-03-05T12:05:49.998Z,64.15
2023-03-05T12:08:25.604Z,63.89
2023-03-05T12:10:54.325Z,63.79
2023-03-05T12:13:29.990Z,63.89
2023-03-05T12:16:09.795Z,63.64
2023-03-05T12:18:47.388Z,63.45
2023-03-05T12:21:26.144Z,63.44
2023-03-05T12:24:01.480Z,63.30
2023-03-05T12:26:56.277Z,62.49
2023-03-05T12:29:30.802Z,62.63
2023-03-05T12:32:00.974Z,63.00
2023-03-05T12:34:48.333Z,62.20
2023-03-05T12:37:50.260Z,62.54
2023-03-05T12:40:25.259Z,62.48
2023-03-05T12:42:55.832Z,62.87
2023-03-05T12:45:30.676Z,62.84
2023-03-05T12:48:50.934Z,62.03
2023-03-05T12:51:34.763Z,62.13
2023-03-05T12:54:31.267Z,61.71
2023-03-05T12:57:02.510Z,62.41
2023-03-05T12:59:43.514Z,61.69
2023-03-05T13:02:32.648Z,61.79
2023-03-05T13:05:06.258Z,62.02
2023-03-05T13:07:34.959Z,61.86
2023-03-05T13:10:03.356Z,61.61
2023-03-05T13:12:33.441Z,61.71
2023-03-05T13:15:04.462Z,61.69
2023-03-05T13:17:39.201Z,61.24
2023-03-05T13:20:33.867Z,60.89
2023-03-05T13:23:12.045Z,61.12
2023-03-05T13:25:40.385Z,61.14
2023-03-05T13:28:14.103Z,61.19
2023-03-05T13:30:46.716Z,61.10
2023-03-05T13:33:19.097Z,60.96
2023-03-05T13:35:48.698Z,61.27
2023-03-05T13:38:27.764Z,60.87
2023-03-05T13:41:20.580Z,61.12
2023-03-05T13:43:52.360Z,61.32
2023-03-05T13:46:33.340Z,61.02
2023-03-05T13:49:22.218Z,60.70
2023-03-05T13:51:51.821Z,61.15
2023-03-05T13:54:20.755Z,60.87
2023-03-05T13:56:58.089Z,60.67
2023-03-05T13:59:29.564Z,60.81
2023-03-05T14:02:00.243Z,60.73
2023-03-05T14:04:30.186Z,61.02
2023-03-05T14:07:01.409Z,60.48
2023-03-05T14:09:32.288Z,60.65
2023-03-05T14:12:03.678Z,60.77
2023-03-05T14:14:37.544Z,60.74
2023-03-05T14:17:33.446Z,60.21
2023-03-05T14:20:33.003Z,60.58
2023-03-05T14:23:03.369Z,60.32
2023-03-05T14:25:38.426Z,60.27
2023-03-05T14:28:18.076Z,60.31
2023-03-05T14:30:48.849Z,60.64
2023-03-05T14:33:24.064Z,60.35
2023-03-05T14:35:53.922Z,60.27
2023-03-05T14:38:26.228Z,60.49
2023-03-05T14:40:55.000Z,60.46
2023-03-05T14:43:23.489Z,60.83
2023-03-05T14:45:53.510Z,60.99
2023-03-05T14:48:21.867Z,61.12
2023-03-05T14:50:56.308Z,60.88
2023-03-05T14:53:27.781Z,61.09
2023-03-05T14:55:57.304Z,60.99
2023-03-05T14:58:27.516Z,61.20
2023-03-05T15:00:57.878Z,61.43
2023-03-05T15:03:27.954Z,61.52
2023-03-05T15:05:59.203Z,61.18
2023-03-05T15:08:29.718Z,61.65
2023-03-05T15:10:58.350Z,61.36
2023-03-05T15:13:27.179Z,61.33
2023-03-05T15:15:57.387Z,61.15
2023-03-05T15:18:25.890Z,61.56
2023-03-05T15:20:54.926Z,61.97
2023-03-05T15:23:23.363Z,61.75
2023-03-05T15:25:51.754Z,61.20
2023-03-05T15:28:20.445Z,61.57
2023-03-05T15:30:49.051Z,61.27
2023-03-05T15:33:18.951Z,61.45
2023-03-05T15:35:47.515Z,61.23
2023-03-05T15:38:16.409Z,61.15
2023-03-05T15:40:45.980Z,60.97
2023-03-05T15:43:15.059Z,61.12
2023-03-05T15:45:43.787Z,61.07
2023-03-05T15:48:12.408Z,60.97
2023-03-05T15:50:43.708Z,61.32
2023-03-05T15:53:16.246Z,61.12
2023-03-05T15:55:46.306Z,61.43
2023-03-05T15:58:16.602Z,61.39
2023-03-05T16:00:47.368Z,61.47
2023-03-05T16:03:16.073Z,61.05
2023-03-05T16:05:46.063Z,61.28
2023-03-05T16:08:14.856Z,60.64
2023-03-05T16:10:43.652Z,61.21
2023-03-05T16:13:16.569Z,60.98
2023-03-05T16:15:47.153Z,61.26
2023-03-05T16:18:18.751Z,60.54
2023-03-05T16:20:48.870Z,60.94
2023-03-05T16:23:18.526Z,60.82
2023-03-05T16:25:46.993Z,60.95
2023-03-05T16:28:15.573Z,60.90
2023-03-05T16:30:44.477Z,61.03
2023-03-05T16:33:12.963Z,61.09
2023-03-05T16:35:41.351Z,60.67
2023-03-05T16:38:11.211Z,60.59
2023-03-05T16:41:06.347Z,60.81
2023-03-05T16:43:28.444Z,60.35
2023-03-05T16:45:56.809Z,61.00
2023-03-05T16:48:25.107Z,60.65
2023-03-05T16:50:53.522Z,60.71
2023-03-05T16:53:23.269Z,60.34
2023-03-05T16:55:51.595Z,60.77
2023-03-05T16:58:19.962Z,61.00
2023-03-05T17:00:48.963Z,60.37
2023-03-05T17:03:17.373Z,60.93
2023-03-05T17:05:45.780Z,60.26
2023-03-05T17:08:14.086Z,60.79
2023-03-05T17:10:44.746Z,60.33
2023-03-05T17:13:13.113Z,60.64
2023-03-05T17:18:14.670Z,60.46
2023-03-05T17:20:43.023Z,61.02
2023-03-05T17:23:11.347Z,60.78
2023-03-05T17:25:39.720Z,60.88
2023-03-05T17:28:10.103Z,61.04
2023-03-05T17:30:38.464Z,60.51
2023-03-05T17:33:07.792Z,61.17
2023-03-05T17:35:36.261Z,60.91
2023-03-05T17:38:05.610Z,60.93
2023-03-05T17:40:34.386Z,60.51
2023-03-05T17:43:03.127Z,61.11
2023-03-05T17:45:35.329Z,60.75
2023-03-05T17:48:08.377Z,61.10
2023-03-05T17:50:37.845Z,60.67
2023-03-05T17:53:06.347Z,60.92
2023-03-05T17:55:34.764Z,61.03
2023-03-05T17:58:03.161Z,60.97
2023-03-05T18:00:36.783Z,60.80
2023-03-05T18:03:06.148Z,60.75
2023-03-05T18:05:34.524Z,60.80
2023-03-05T18:08:05.426Z,61.56
2023-03-05T18:10:34.160Z,60.86
2023-03-05T18:13:02.576Z,61.77
2023-03-05T18:15:32.332Z,61.29
2023-03-05T18:18:01.549Z,61.29
2023-03-05T18:20:32.488Z,61.30
2023-03-05T18:23:02.008Z,61.80
2023-03-05T18:25:31.826Z,61.23
2023-03-05T18:28:01.081Z,61.19
2023-03-05T18:30:30.539Z,61.78
2023-03-05T18:33:00.974Z,61.29
2023-03-05T18:35:30.145Z,61.77
2023-03-05T18:37:59.087Z,61.70
2023-03-05T18:40:32.474Z,61.37
2023-03-05T18:43:01.783Z,61.92
2023-03-05T18:45:30.886Z,62.15
2023-03-05T18:48:00.878Z,62.20
2023-03-05T18:50:30.659Z,62.05
2023-03-05T18:52:59.058Z,61.55
2023-03-05T18:55:29.485Z,61.89
2023-03-05T18:57:58.568Z,61.58
2023-03-05T19:00:28.698Z,61.97
2023-03-05T19:02:58.032Z,62.40
2023-03-05T19:05:27.989Z,61.50
2023-03-05T19:07:56.373Z,61.97
2023-03-05T19:10:24.803Z,61.88
2023-03-05T19:13:41.008Z,62.14
2023-03-05T19:16:12.577Z,61.89
2023-03-05T19:19:05.629Z,62.18
2023-03-05T19:21:35.344Z,61.77
2023-03-05T19:24:03.681Z,62.19
2023-03-05T19:26:32.253Z,61.82
2023-03-05T19:29:02.086Z,61.86
2023-03-05T19:31:30.674Z,62.33
2023-03-05T19:33:59.145Z,61.85
2023-03-05T19:36:27.489Z,62.33
2023-03-05T19:38:57.432Z,62.10
2023-03-05T19:41:27.692Z,61.86
2023-03-05T19:43:56.237Z,61.68
2023-03-05T19:46:24.838Z,61.95
2023-03-05T19:48:53.428Z,62.48
2023-03-05T19:51:25.275Z,62.19
2023-03-05T19:53:54.077Z,62.12
2023-03-05T19:56:30.218Z,61.71
2023-03-05T19:58:59.013Z,61.78
2023-03-05T20:01:28.355Z,62.41
2023-03-05T20:03:58.923Z,62.18
2023-03-05T20:06:29.476Z,62.47
2023-03-05T20:08:58.359Z,62.19
2023-03-05T20:11:29.303Z,62.07
2023-03-05T20:13:58.166Z,62.22
2023-03-05T20:16:29.689Z,61.99
2023-03-05T20:19:00.316Z,62.70
2023-03-05T20:21:31.633Z,62.51
2023-03-05T20:24:03.959Z,61.95
2023-03-05T20:26:35.627Z,62.07
2023-03-05T20:29:04.939Z,62.26
2023-03-05T20:31:36.796Z,62.74
2023-03-05T20:34:06.361Z,62.40
2023-03-05T20:36:35.578Z,63.03
2023-03-05T20:39:04.358Z,62.56
2023-03-05T20:41:35.429Z,62.50
2023-03-05T20:44:04.848Z,62.65
2023-03-05T20:46:35.498Z,62.50
2023-03-05T20:49:05.230Z,62.60
2023-03-05T20:51:35.978Z,62.86
2023-03-05T20:54:06.325Z,62.43
2023-03-05T20:56:36.482Z,62.84
2023-03-05T20:59:08.691Z,62.55
2023-03-05T21:01:40.201Z,62.87
2023-03-05T21:04:09.000Z,63.25
2023-03-05T21:06:43.748Z,62.82
2023-03-05T21:09:12.157Z,63.25
2023-03-05T21:11:41.861Z,63.07
2023-03-05T21:14:10.286Z,63.03
2023-03-05T21:16:38.641Z,63.14
2023-03-05T21:19:08.189Z,63.38
2023-03-05T21:21:36.663Z,63.37
2023-03-05T21:24:05.244Z,63.94
2023-03-05T21:26:34.183Z,63.46
2023-03-05T21:29:04.256Z,64.03
2023-03-05T21:31:32.870Z,63.91
2023-03-05T21:34:01.792Z,64.28
2023-03-05T21:36:30.166Z,63.99
2023-03-05T21:38:59.465Z,64.24
2023-03-05T21:41:28.082Z,64.63
2023-03-05T21:43:57.442Z,64.31
2023-03-05T21:46:27.140Z,64.29
2023-03-05T21:48:55.537Z,64.92
2023-03-05T21:52:09.329Z,64.63
2023-03-05T21:54:37.779Z,64.71
2023-03-05T21:57:07.285Z,64.19
2023-03-05T21:59:35.931Z,65.00
2023-03-05T22:02:05.671Z,64.71
2023-03-05T22:04:34.000Z,65.11
2023-03-05T22:07:02.361Z,65.21
2023-03-05T22:09:30.958Z,65.25
2023-03-05T22:11:59.508Z,65.04
2023-03-05T22:14:27.809Z,65.31
2023-03-05T22:17:02.054Z,65.10
2023-03-05T22:19:32.014Z,65.25
2023-03-05T22:22:00.348Z,64.79
2023-03-05T22:24:28.688Z,65.38
2023-03-05T22:26:57.080Z,65.17
2023-03-05T22:29:26.783Z,65.35
2023-03-05T22:31:55.903Z,65.67
2023-03-05T22:34:24.363Z,65.64
2023-03-05T22:36:54.149Z,65.57
2023-03-05T22:39:22.452Z,65.87
2023-03-05T22:41:50.858Z,65.97
2023-03-05T22:44:19.210Z,66.26
2023-03-05T22:46:47.531Z,65.79
2023-03-05T22:49:15.987Z,66.10
2023-03-05T22:51:44.406Z,66.15
2023-03-05T22:54:14.139Z,66.23
2023-03-05T22:56:42.514Z,66.11
2023-03-05T22:59:10.885Z,66.25
2023-03-05T23:01:39.220Z,65.81
2023-03-05T23:04:49.938Z,66.31
2023-03-05T23:07:19.859Z,65.88
2023-03-05T23:09:54.712Z,66.24
2023-03-05T23:12:24.442Z,66.00
2023-03-05T23:14:52.860Z,66.10
2023-03-05T23:17:21.354Z,66.13
2023-03-05T23:19:49.711Z,65.77
2023-03-05T23:22:18.102Z,66.20
2023-03-05T23:24:46.556Z,65.72
2023-03-05T23:27:18.351Z,65.84
2023-03-05T23:30:17.638Z,66.07
2023-03-05T23:32:47.800Z,66.19
2023-03-05T23:35:18.197Z,66.08
2023-03-05T23:37:46.776Z,65.60
2023-03-05T23:40:18.478Z,66.22
2023-03-05T23:42:48.468Z,65.89
2023-03-05T23:45:19.162Z,65.86
2023-03-05T23:47:48.933Z,65.91
2023-03-05T23:50:20.898Z,66.11
2023-03-05T23:52:54.021Z,65.83
2023-03-05T23:55:24.760Z,65.88
2023-03-05T23:57:55.179Z,66.05
